Time;durP1;ratioP1;P1;durP2;ratioP2;P2;SDS_P1;SDS_P2;PMS_P1;PMS_P2;Temp;Humidity;BMP_temperature;BMP_pressure;BME280_temperature;BME280_humidity;BME280_pressure;Samples;Min_cycle;Max_cycle;Signal;HPM_P1;HPM_P2
2021/04/13 00:00:29;;;;;;;3.05;1.75;;;;;;;1.94;84.09;101907.34;3562702;40;20438;-45
2021/04/13 00:02:59;;;;;;;2.97;2.13;;;;;;;1.83;85.21;101900.56;3556632;40;20085;-44
2021/04/13 00:05:35;;;;;;;4.25;2.22;;;;;;;1.63;85.26;101896.44;3563038;40;20534;-46
2021/04/13 00:08:07;;;;;;;3.88;3.10;;;;;;;2.05;83.80;101904.03;3563340;40;20060;-45
2021/04/13 00:10:42;;;;;;;4.00;2.42;;;;;;;1.88;84.57;101897.66;3563154;40;20057;-46
2021/04/13 00:13:10;;;;;;;2.33;2.08;;;;;;;1.80;84.69;101901.19;3558920;40;20387;-46
2021/04/13 00:15:48;;;;;;;2.88;1.88;;;;;;;1.73;84.67;101909.94;3562865;40;20417;-43
2021/04/13 00:18:18;;;;;;;4.70;2.30;;;;;;;1.72;85.23;101899.72;3563313;40;20049;-46
2021/04/13 00:20:52;;;;;;;3.55;2.58;;;;;;;1.80;84.71;101898.66;3562967;40;20098;-44
2021/04/13 00:23:19;;;;;;;2.67;2.47;;;;;;;1.54;85.56;101896.59;3563115;40;20037;-44
2021/04/13 00:25:51;;;;;;;5.07;2.47;;;;;;;1.46;85.98;101900.13;3563145;40;20465;-43
2021/04/13 00:28:27;;;;;;;4.20;2.63;;;;;;;1.83;85.33;101896.41;3563108;40;20061;-43
2021/04/13 00:31:05;;;;;;;2.85;2.33;;;;;;;1.51;85.72;101901.38;3562893;40;20144;-44
2021/04/13 00:33:35;;;;;;;2.78;2.10;;;;;;;1.28;87.16;101891.94;3563302;40;20060;-43
2021/04/13 00:36:13;;;;;;;3.97;2.65;;;;;;;1.37;87.05;101902.78;3562779;40;20107;-47
2021/04/13 00:38:48;;;;;;;3.80;2.38;;;;;;;1.28;87.81;101899.50;3563107;40;20055;-42
2021/04/13 00:41:19;;;;;;;6.17;2.63;;;;;;;1.39;87.74;101901.28;3559722;40;20072;-44
2021/04/13 00:43:55;;;;;;;4.43;2.72;;;;;;;1.19;87.37;101909.72;3562851;40;20046;-43
2021/04/13 00:46:24;;;;;;;;;;;;;;;1.20;88.04;101903.03;3563696;40;20084;-46
2021/04/13 00:48:53;;;;;;;4.47;2.63;;;;;;;0.87;89.44;101898.59;3563316;40;19948;-47
2021/04/13 00:51:41;;;;;;;3.53;2.78;;;;;;;1.00;89.01;101904.78;3563051;40;20181;-43
2021/04/13 00:54:12;;;;;;;9.02;2.67;;;;;;;1.28;88.70;101905.41;3559472;40;20064;-45
2021/04/13 00:56:40;;;;;;;4.63;2.60;;;;;;;1.48;86.80;101904.56;3564666;40;20053;-44
2021/04/13 00:59:17;;;;;;;5.70;2.88;;;;;;;1.57;86.70;101901.88;3561750;40;20082;-47
2021/04/13 01:01:51;;;;;;;4.90;2.50;;;;;;;1.43;86.72;101900.78;3564032;40;20061;-44
2021/04/13 01:04:30;;;;;;;3.75;2.70;;;;;;;1.33;87.11;101903.28;3563296;40;20065;-43
2021/04/13 01:07:07;;;;;;;3.85;2.80;;;;;;;1.18;88.32;101907.94;3563143;40;20061;-44
2021/04/13 01:09:43;;;;;;;4.93;2.83;;;;;;;1.28;88.10;101907.94;3563141;40;20386;-45
2021/04/13 01:12:36;;;;;;;3.40;2.58;;;;;;;1.14;87.64;101913.50;3559137;40;20089;-45
2021/04/13 01:15:05;;;;;;;3.72;2.92;;;;;;;0.67;89.99;101912.03;3562566;40;20426;-45
2021/04/13 01:17:33;;;;;;;4.20;2.67;;;;;;;1.08;88.73;101907.94;3562850;40;20264;-43
2021/04/13 01:20:03;;;;;;;5.20;3.13;;;;;;;0.46;90.02;101906.94;3562652;40;20131;-48
2021/04/13 01:25:23;;;;;;;3.95;2.90;;;;;;;0.88;89.57;101910.44;3562580;40;20253;-45
2021/04/13 01:27:57;;;;;;;5.18;3.15;;;;;;;1.19;88.59;101916.41;3562833;40;20040;-44
2021/04/13 01:30:34;;;;;;;4.05;3.30;;;;;;;1.23;87.65;101914.25;3562674;40;20434;-43
2021/04/13 01:33:09;;;;;;;4.75;3.30;;;;;;;1.14;87.51;101918.53;3562857;40;20443;-44
2021/04/13 01:35:36;;;;;;;3.45;3.15;;;;;;;0.62;89.46;101910.78;3562710;40;20450;-43
2021/04/13 01:41:32;;;;;;;2.90;2.60;;;;;;;0.83;89.25;101914.19;3562770;40;20061;-47
2021/04/13 01:43:41;;;;;;;5.57;3.40;;;;;;;0.48;91.16;101915.50;3558301;40;20312;-44
2021/04/13 01:46:11;;;;;;;3.90;3.25;;;;;;;0.48;91.85;101914.63;3558749;40;20431;-44
2021/04/13 01:48:40;;;;;;;6.38;3.20;;;;;;;0.28;92.48;101917.06;3562494;40;20050;-44
2021/04/13 01:51:09;;;;;;;4.80;3.60;;;;;;;0.42;92.60;101914.13;3558758;40;20085;-43
2021/04/13 01:53:41;;;;;;;4.78;3.50;;;;;;;0.81;90.55;101906.53;3562650;40;20072;-43
2021/04/13 01:56:18;;;;;;;6.70;3.67;;;;;;;0.52;91.13;101909.09;3558709;40;20358;-45
2021/04/13 01:58:59;;;;;;;6.78;3.50;;;;;;;0.36;92.75;101911.06;3562351;40;20725;-43
2021/04/13 02:01:35;;;;;;;7.40;3.78;;;;;;;0.27;92.38;101908.63;3562357;40;20065;-44
2021/04/13 02:04:06;;;;;;;4.60;3.60;;;;;;;0.08;92.58;101916.22;3562410;40;20109;-44
2021/04/13 02:06:43;;;;;;;3.78;3.47;;;;;;;0.14;93.24;101910.81;3562380;40;20229;-43
2021/04/13 02:12:17;;;;;;;4.85;3.95;;;;;;;-0.09;93.55;101908.84;3557155;40;20112;-43
2021/04/13 02:14:51;;;;;;;5.97;4.13;;;;;;;0.17;93.25;101917.00;3562489;40;20384;-45
2021/04/13 02:17:27;;;;;;;9.77;4.45;;;;;;;-0.01;93.05;101907.84;3562656;40;20439;-45
2021/04/13 02:19:56;;;;;;;6.35;4.30;;;;;;;0.00;94.18;101912.16;3562419;40;20053;-43
2021/04/13 02:22:24;;;;;;;5.82;3.80;;;;;;;0.07;93.68;101914.47;3562743;40;20061;-44
2021/04/13 02:24:54;;;;;;;8.93;4.60;;;;;;;0.42;93.22;101914.13;3562248;40;20049;-45
2021/04/13 02:27:25;;;;;;;7.35;3.90;;;;;;;0.31;92.18;101919.84;3562136;40;20060;-43
2021/04/13 02:30:05;;;;;;;4.53;3.85;;;;;;;0.41;91.74;101919.88;3562084;40;20056;-43
2021/04/13 02:32:34;;;;;;;5.82;4.35;;;;;;;0.38;91.28;101917.13;3561720;40;20428;-43
2021/04/13 02:35:05;;;;;;;7.07;4.18;;;;;;;0.13;92.40;101922.53;3562224;40;20058;-43
2021/04/13 02:37:37;;;;;;;5.82;4.72;;;;;;;0.13;92.32;101925.06;3563442;40;20060;-43
2021/04/13 02:40:19;;;;;;;5.97;4.97;;;;;;;-0.21;94.11;101926.25;3563691;40;20060;-43
2021/04/13 02:42:49;;;;;;;7.55;4.78;;;;;;;-0.22;94.76;101924.50;3563713;40;20089;-42
2021/04/13 02:45:47;;;;;;;4.97;4.40;;;;;;;-0.40;95.62;101930.41;3563935;40;20050;-45
2021/04/13 02:48:24;;;;;;;5.72;4.78;;;;;;;0.04;94.29;101925.88;3549465;40;20054;-43
2021/04/13 02:50:54;;;;;;;5.13;4.63;;;;;;;0.09;94.42;101932.22;3564089;40;20427;-46
2021/04/13 02:53:25;;;;;;;7.88;5.35;;;;;;;-0.03;94.03;101929.50;3563489;40;20060;-43
2021/04/13 02:55:57;;;;;;;9.70;5.05;;;;;;;-0.08;93.88;101929.09;3563529;40;20057;-43
2021/04/13 02:58:37;;;;;;;8.32;5.60;;;;;;;-0.37;95.20;101935.69;3563921;40;20078;-43
2021/04/13 03:01:04;;;;;;;7.55;5.90;;;;;;;-0.42;96.18;101930.25;3563550;40;20053;-46
2021/04/13 03:03:40;;;;;;;6.53;5.43;;;;;;;-0.13;94.75;101930.34;3563734;40;20391;-44
2021/04/13 03:06:07;;;;;;;9.93;6.10;;;;;;;-0.26;95.35;101920.81;3563800;40;20052;-45
2021/04/13 03:08:42;;;;;;;8.13;5.93;;;;;;;0.09;94.73;101930.56;3563782;40;20089;-45
2021/04/13 03:11:16;;;;;;;9.45;6.80;;;;;;;-0.19;95.28;101924.75;3559949;40;20057;-45
2021/04/13 03:13:44;;;;;;;10.27;7.17;;;;;;;-0.31;96.42;101934.63;3563467;40;20107;-43
2021/04/13 03:16:12;;;;;;;10.75;7.82;;;;;;;-0.16;95.82;101937.63;3563983;40;20138;-46
2021/04/13 03:18:43;;;;;;;10.68;7.45;;;;;;;-0.27;96.00;101936.69;3563608;40;20068;-44
2021/04/13 03:21:26;;;;;;;11.75;8.40;;;;;;;-0.13;96.31;101937.00;3559968;40;20077;-46
2021/04/13 03:23:56;;;;;;;11.70;7.78;;;;;;;-0.10;95.99;101933.09;3563436;40;20059;-44
2021/04/13 03:26:51;;;;;;;10.13;7.45;;;;;;;0.06;95.02;101924.41;3563582;40;20125;-44
2021/04/13 03:29:29;;;;;;;12.30;8.98;;;;;;;-0.17;95.64;101933.34;3542775;40;20738;-44
2021/04/13 03:31:58;;;;;;;15.25;8.25;;;;;;;-0.03;95.53;101935.44;3563237;40;20083;-42
2021/04/13 03:34:25;;;;;;;12.32;8.55;;;;;;;0.11;96.05;101939.16;3563935;40;20057;-43
2021/04/13 03:36:55;;;;;;;13.40;9.23;;;;;;;-0.11;96.75;101933.88;3563972;40;20517;-45
2021/04/13 03:39:35;;;;;;;15.63;9.70;;;;;;;0.04;96.67;101930.91;3563255;40;20072;-43
2021/04/13 03:42:04;;;;;;;17.45;9.38;;;;;;;-0.03;95.98;101932.03;3563177;40;20061;-43
2021/04/13 03:44:32;;;;;;;13.60;9.60;;;;;;;0.09;96.14;101938.13;3563278;40;20086;-48
2021/04/13 03:46:59;;;;;;;13.48;9.63;;;;;;;0.11;95.06;101941.69;3563521;40;20061;-45
2021/04/13 03:49:29;;;;;;;15.98;10.10;;;;;;;-0.03;95.74;101935.44;3562869;40;20062;-43
2021/04/13 03:52:00;;;;;;;17.67;10.52;;;;;;;-0.09;96.51;101944.97;3563158;40;20060;-43
2021/04/13 03:54:30;;;;;;;14.80;10.00;;;;;;;-0.05;96.30;101947.03;3563380;40;20097;-43
2021/04/13 03:56:59;;;;;;;13.30;9.30;;;;;;;0.23;95.38;101949.41;3563145;40;20085;-43
2021/04/13 03:59:29;;;;;;;13.15;9.48;;;;;;;0.18;95.39;101938.94;3563608;40;20104;-43
2021/04/13 04:01:56;;;;;;;15.63;9.95;;;;;;;0.13;95.54;101945.19;3564601;40;20061;-47
2021/04/13 04:04:38;;;;;;;14.32;10.05;;;;;;;-0.11;96.18;101945.56;3566763;40;20059;-47
2021/04/13 04:07:34;;;;;;;16.40;10.13;;;;;;;0.13;95.38;101944.31;3563235;40;20073;-43
2021/04/13 04:10:00;;;;;;;18.70;11.40;;;;;;;0.05;95.61;101946.19;3563112;40;20353;-42
2021/04/13 04:12:31;;;;;;;21.98;13.75;;;;;;;0.12;95.89;101951.00;3562811;40;20315;-43
2021/04/13 04:15:05;;;;;;;25.08;14.57;;;;;;;0.01;96.78;101948.31;3563419;40;20069;-46
2021/04/13 04:17:38;;;;;;;27.08;15.88;;;;;;;-0.27;97.31;101950.91;3563241;40;20427;-45
2021/04/13 04:20:09;;;;;;;29.92;17.60;;;;;;;-0.02;95.98;101948.91;3563184;40;20051;-43
2021/04/13 04:22:47;;;;;;;27.60;16.67;;;;;;;-0.11;96.64;101951.50;3563292;40;20058;-43
2021/04/13 04:25:21;;;;;;;26.08;16.42;;;;;;;-0.16;96.29;101954.34;3563129;40;20081;-43
2021/04/13 04:27:53;;;;;;;26.00;17.23;;;;;;;0.09;97.12;101957.38;3563063;40;20090;-42
2021/04/13 04:30:34;;;;;;;24.90;15.63;;;;;;;0.06;95.71;101963.06;3563261;40;20064;-43
2021/04/13 04:33:03;;;;;;;17.48;11.35;;;;;;;-0.18;96.74;101970.97;3562708;40;20443;-55
2021/04/13 04:35:41;;;;;;;15.25;10.73;;;;;;;0.06;95.44;101969.72;3563211;40;20089;-44
2021/04/13 04:38:09;;;;;;;14.82;10.13;;;;;;;0.17;96.11;101974.94;3559382;40;20198;-45
2021/04/13 04:40:58;;;;;;;18.60;10.00;;;;;;;0.37;94.44;101968.22;3562945;40;20104;-43
2021/04/13 04:43:48;;;;;;;13.98;10.15;;;;;;;0.47;94.30;101980.91;3562667;40;20441;-45
2021/04/13 04:46:31;;;;;;;12.77;9.68;;;;;;;0.62;93.23;101979.69;3563432;40;20332;-48
2021/04/13 04:49:23;;;;;;;16.20;10.43;;;;;;;0.82;91.80;101978.00;3562946;40;20065;-44
2021/04/13 04:51:52;;;;;;;14.45;10.40;;;;;;;0.66;92.84;101983.38;3561019;40;20082;-43
2021/04/13 04:54:20;;;;;;;13.68;9.73;;;;;;;0.52;93.71;101983.81;3562991;40;20089;-43
2021/04/13 04:56:48;;;;;;;16.10;10.45;;;;;;;0.37;93.88;101986.78;3567579;40;20049;-43
2021/04/13 04:59:15;;;;;;;16.77;10.43;;;;;;;0.50;93.35;101984.56;3559738;40;20085;-44
2021/04/13 05:01:41;;;;;;;13.93;10.00;;;;;;;0.80;92.66;101993.00;3558543;40;20053;-45
2021/04/13 05:04:08;;;;;;;14.77;10.30;;;;;;;0.83;92.04;101987.31;3558312;40;20354;-44
2021/04/13 05:06:35;;;;;;;16.40;10.38;;;;;;;0.74;92.25;101995.00;3561076;40;20061;-43
2021/04/13 05:09:02;;;;;;;14.95;10.05;;;;;;;0.83;92.13;101989.84;3561118;40;20084;-45
2021/04/13 05:11:28;;;;;;;19.33;11.25;;;;;;;0.87;91.93;101990.22;3559883;40;20076;-45
2021/04/13 05:13:55;;;;;;;18.33;11.18;;;;;;;0.90;91.77;101994.66;3562887;40;20053;-42
2021/04/13 05:16:23;;;;;;;14.85;11.00;;;;;;;0.82;91.97;101996.53;3562934;40;20125;-47
2021/04/13 05:18:50;;;;;;;16.30;11.38;;;;;;;0.72;92.49;101999.91;3563032;40;20076;-43
2021/04/13 05:21:17;;;;;;;17.20;11.23;;;;;;;0.90;91.70;102004.75;3563285;40;20061;-46
2021/04/13 05:23:44;;;;;;;17.92;11.35;;;;;;;0.94;91.75;102004.28;3562938;40;20329;-43
2021/04/13 05:26:11;;;;;;;18.83;11.25;;;;;;;0.84;92.46;102007.66;3562998;40;20303;-46
2021/04/13 05:28:37;;;;;;;18.33;11.90;;;;;;;0.74;92.33;102005.09;3563166;40;20057;-44
2021/04/13 05:31:05;;;;;;;14.93;10.73;;;;;;;0.96;91.74;102011.19;3562998;40;20057;-43
2021/04/13 05:33:36;;;;;;;16.90;11.57;;;;;;;1.06;91.24;102017.91;3562644;40;20146;-46
2021/04/13 05:36:04;;;;;;;15.52;10.88;;;;;;;1.08;91.22;102016.41;3563190;40;20053;-44
2021/04/13 05:38:37;;;;;;;18.85;11.57;;;;;;;1.12;91.00;102018.44;3562576;40;20419;-44
2021/04/13 05:41:07;;;;;;;18.50;11.73;;;;;;;0.96;91.30;102017.88;3562489;40;20057;-42
2021/04/13 05:43:38;;;;;;;14.82;10.52;;;;;;;1.10;91.30;102019.06;3563580;40;20109;-44
2021/04/13 05:46:05;;;;;;;19.80;12.95;;;;;;;0.97;92.17;102023.06;3562541;40;20057;-43
2021/04/13 05:48:32;;;;;;;17.05;11.68;;;;;;;1.24;90.48;102018.56;3562728;40;20265;-46
2021/04/13 05:50:59;;;;;;;17.73;12.10;;;;;;;1.05;91.16;102018.66;3562587;40;20089;-44
2021/04/13 05:53:25;;;;;;;17.55;12.15;;;;;;;1.28;91.23;102024.00;3562645;40;20069;-43
2021/04/13 05:55:54;;;;;;;18.10;12.23;;;;;;;1.53;90.26;102018.53;3562986;40;20080;-45
2021/04/13 05:58:26;;;;;;;16.02;11.85;;;;;;;1.00;91.13;102025.84;3562487;40;20081;-44
2021/04/13 06:00:55;;;;;;;18.70;11.82;;;;;;;1.57;89.40;102014.59;3562663;40;20045;-45
2021/04/13 06:03:25;;;;;;;18.48;12.38;;;;;;;1.92;88.26;102015.84;3562400;40;20783;-44
2021/04/13 06:05:54;;;;;;;18.17;13.02;;;;;;;1.76;88.21;102028.88;3562696;40;20389;-45
2021/04/13 06:08:21;;;;;;;18.40;13.48;;;;;;;1.81;88.70;102020.78;3562868;40;20415;-43
2021/04/13 06:10:49;;;;;;;21.40;13.05;;;;;;;2.14;87.45;102025.19;3564636;40;20065;-43
2021/04/13 06:13:17;;;;;;;16.73;11.40;;;;;;;2.04;87.74;102028.59;3566966;40;20106;-46
2021/04/13 06:15:44;;;;;;;14.63;11.00;;;;;;;2.18;87.62;102032.25;3565618;40;20049;-45
2021/04/13 06:18:11;;;;;;;16.25;12.38;;;;;;;2.42;86.87;102030.81;3566829;40;20049;-45
2021/04/13 06:20:38;;;;;;;18.23;11.88;;;;;;;2.59;85.45;102032.13;3567815;40;20150;-46
2021/04/13 06:23:05;;;;;;;16.60;10.43;;;;;;;2.55;85.12;102033.56;3566608;40;20421;-44
2021/04/13 06:25:32;;;;;;;15.70;11.55;;;;;;;2.34;85.70;102030.19;3567163;40;20081;-45
2021/04/13 06:28:00;;;;;;;15.60;10.88;;;;;;;2.79;85.00;102038.00;3565998;40;20079;-43
2021/04/13 06:30:27;;;;;;;16.48;11.40;;;;;;;3.18;82.49;102039.31;3567479;40;20052;-46
2021/04/13 06:32:59;;;;;;;14.05;9.88;;;;;;;3.04;84.91;102039.91;3563365;40;20385;-44
2021/04/13 06:35:28;;;;;;;15.35;11.55;;;;;;;3.44;82.98;102048.03;3565132;40;20075;-44
2021/04/13 06:37:58;;;;;;;14.48;10.13;;;;;;;3.42;82.09;102044.50;3563458;40;20038;-46
2021/04/13 06:40:49;;;;;;;15.35;10.80;;;;;;;3.52;82.35;102044.44;3563890;40;20082;-46
2021/04/13 06:43:34;;;;;;;12.93;9.48;;;;;;;3.74;80.19;102052.00;3563562;40;20098;-46
2021/04/13 06:46:33;;;;;;;16.52;9.60;;;;;;;4.24;78.73;102052.31;3563659;40;20058;-47
2021/04/13 06:49:19;;;;;;;11.43;8.45;;;;;;;4.71;76.23;102058.28;3564639;40;20065;-46
2021/04/13 06:52:03;;;;;;;10.80;8.27;;;;;;;6.07;71.19;102056.63;3566264;40;20089;-44
2021/04/13 06:54:49;;;;;;;10.35;8.23;;;;;;;6.69;68.78;102059.78;3567223;40;20041;-43
2021/04/13 06:57:38;;;;;;;9.67;7.07;;;;;;;7.37;64.84;102057.19;3566633;40;20131;-44
2021/04/13 07:00:33;;;;;;;11.38;7.18;;;;;;;7.43;65.39;102056.69;3564934;40;20049;-45
2021/04/13 07:03:33;;;;;;;8.20;6.70;;;;;;;7.08;65.72;102053.75;3562586;40;20321;-45
2021/04/13 07:06:11;;;;;;;8.55;6.70;;;;;;;6.33;67.39;102059.22;3565917;40;20052;-45
2021/04/13 07:08:42;;;;;;;11.05;7.55;;;;;;;5.98;68.60;102058.56;3570008;40;20386;-48
2021/04/13 07:11:25;;;;;;;9.48;7.18;;;;;;;6.48;67.57;102055.88;3567437;40;20061;-44
2021/04/13 07:14:08;;;;;;;10.90;7.00;;;;;;;7.18;66.70;102054.31;3566652;40;20052;-45
2021/04/13 07:16:50;;;;;;;10.27;6.80;;;;;;;6.74;66.99;102053.31;3567268;40;20077;-45
2021/04/13 07:19:31;;;;;;;8.48;6.10;;;;;;;6.54;67.12;102053.72;3566342;40;20053;-45
2021/04/13 07:22:00;;;;;;;10.80;7.07;;;;;;;6.75;67.04;102061.81;3564515;40;20262;-42
2021/04/13 07:24:43;;;;;;;11.50;7.05;;;;;;;7.13;65.27;102054.03;3567517;40;20686;-45
2021/04/13 07:27:21;;;;;;;12.93;6.65;;;;;;;7.43;64.32;102047.38;3567114;40;20052;-43
2021/04/13 07:29:56;;;;;;;8.32;6.47;;;;;;;6.84;65.69;102048.03;3565011;40;20104;-45
2021/04/13 07:32:25;;;;;;;10.20;6.68;;;;;;;6.82;65.96;102046.16;3567662;40;20238;-45
2021/04/13 07:35:02;;;;;;;11.65;6.75;;;;;;;7.53;64.28;102052.22;3565957;40;20054;-45
2021/04/13 07:37:38;;;;;;;8.23;5.43;;;;;;;7.95;62.82;102045.38;3562882;40;20053;-46
2021/04/13 07:40:22;;;;;;;9.90;5.85;;;;;;;8.65;59.25;102044.28;3562570;40;20328;-45
2021/04/13 07:42:59;;;;;;;8.30;6.18;;;;;;;8.42;60.65;102052.34;3565225;40;20032;-44
2021/04/13 07:46:05;;;;;;;6.47;5.78;;;;;;;7.56;62.30;102049.88;3565005;40;20080;-46
2021/04/13 07:48:34;;;;;;;9.30;5.38;;;;;;;7.83;63.10;102047.19;3552748;40;20097;-45
2021/04/13 07:51:15;;;;;;;8.93;5.20;;;;;;;7.83;61.76;102052.28;3565891;40;20044;-46
2021/04/13 07:53:47;;;;;;;9.07;6.00;;;;;;;7.72;64.30;102048.22;3567446;40;20060;-45
2021/04/13 07:56:13;;;;;;;10.40;5.70;;;;;;;7.65;63.92;102044.44;3565757;40;20553;-45
2021/04/13 07:59:17;;;;;;;9.52;6.13;;;;;;;7.76;64.08;102045.06;3566319;40;20067;-43
2021/04/13 08:01:46;;;;;;;7.38;4.68;;;;;;;8.03;64.81;102035.59;3566187;40;20073;-45
2021/04/13 08:04:26;;;;;;;9.13;4.75;;;;;;;7.95;63.56;102040.25;3564705;40;20057;-46
2021/04/13 08:07:00;;;;;;;6.80;4.40;;;;;;;7.56;62.74;102038.78;3566390;40;20081;-45
2021/04/13 08:09:37;;;;;;;6.95;4.18;;;;;;;7.51;63.93;102040.19;3565090;40;20061;-43
2021/04/13 08:12:09;;;;;;;6.18;3.90;;;;;;;8.23;60.36;102042.72;3566755;40;20045;-45
2021/04/13 08:14:45;;;;;;;6.57;3.63;;;;;;;8.00;62.33;102043.09;3563414;40;20084;-46
2021/04/13 08:17:20;;;;;;;7.10;3.90;;;;;;;7.78;61.87;102040.94;3563087;40;20108;-51
2021/04/13 08:20:08;;;;;;;4.88;3.60;;;;;;;7.80;60.44;102052.97;3566128;40;20226;-45
2021/04/13 08:23:11;;;;;;;7.35;3.78;;;;;;;7.74;61.06;102047.53;3566680;40;20065;-45
2021/04/13 08:25:48;;;;;;;7.60;3.92;;;;;;;8.16;59.74;102044.03;3544532;40;20041;-44
2021/04/13 08:28:41;;;;;;;9.07;4.30;;;;;;;7.97;61.19;102033.56;3566466;40;20065;-45
2021/04/13 08:34:45;;;;;;;7.60;2.95;;;;;;;8.18;58.81;102033.94;3565586;40;20151;-44
2021/04/13 08:37:31;;;;;;;3.92;2.40;;;;;;;8.60;59.26;102032.94;3562057;40;20080;-44
2021/04/13 08:40:07;;;;;;;5.78;2.60;;;;;;;8.57;57.87;102039.53;3563716;40;20053;-43
2021/04/13 08:42:45;;;;;;;4.55;3.13;;;;;;;8.45;57.51;102049.94;3564002;40;20057;-43
2021/04/13 08:45:27;;;;;;;4.00;2.63;;;;;;;8.59;57.05;102043.03;3564802;40;20037;-44
2021/04/13 08:48:01;;;;;;;7.07;2.40;;;;;;;8.68;57.75;102041.00;3565242;40;20068;-46
2021/04/13 08:50:35;;;;;;;4.82;2.33;;;;;;;9.21;56.54;102040.47;3565863;40;20118;-44
2021/04/13 08:53:07;;;;;;;4.95;2.67;;;;;;;9.01;54.86;102043.63;3562916;40;20093;-43
2021/04/13 08:55:37;;;;;;;6.10;3.20;;;;;;;8.80;55.55;102045.91;3566912;40;20058;-47
2021/04/13 08:58:12;;;;;;;4.80;2.50;;;;;;;8.61;56.88;102044.03;3565587;40;20045;-43
2021/04/13 09:00:47;;;;;;;4.30;2.78;;;;;;;8.36;58.86;102042.63;3563434;40;20176;-45
2021/04/13 09:03:19;;;;;;;6.35;2.25;;;;;;;8.82;57.48;102042.63;3562915;40;20089;-44
2021/04/13 09:05:49;;;;;;;3.72;2.15;;;;;;;8.68;55.38;102041.88;3565224;40;20406;-47
2021/04/13 09:08:41;;;;;;;5.00;2.33;;;;;;;9.18;55.54;102041.16;3562990;40;20119;-44
2021/04/13 09:11:37;;;;;;;6.85;3.10;;;;;;;9.10;55.85;102039.00;3558968;40;20044;-46
2021/04/13 09:14:24;;;;;;;6.32;2.92;;;;;;;9.14;54.99;102039.25;3562731;40;20049;-47
2021/04/13 09:17:25;;;;;;;3.85;2.10;;;;;;;9.32;54.34;102047.00;3563024;40;20575;-45
2021/04/13 09:20:10;;;;;;;5.20;3.28;;;;;;;9.14;52.50;102036.69;3562897;40;20403;-44
2021/04/13 09:23:03;;;;;;;2.78;1.98;;;;;;;8.83;54.97;102033.31;3562646;40;20117;-45
2021/04/13 09:25:42;;;;;;;4.60;1.95;;;;;;;9.40;53.73;102048.28;3562533;40;20060;-47
2021/04/13 09:28:11;;;;;;;4.47;2.28;;;;;;;9.26;53.76;102038.16;3558516;40;20045;-43
2021/04/13 09:31:00;;;;;;;3.70;2.00;;;;;;;10.17;52.60;102045.38;3562289;40;20410;-44
2021/04/13 09:33:36;;;;;;;4.03;2.17;;;;;;;10.10;52.63;102048.44;3559823;40;20067;-45
2021/04/13 09:36:08;;;;;;;3.67;2.17;;;;;;;9.58;53.22;102040.69;3562103;40;20392;-46
2021/04/13 09:39:07;;;;;;;5.82;2.60;;;;;;;10.20;54.43;102042.06;3562834;40;20053;-50
2021/04/13 09:41:56;;;;;;;7.13;2.78;;;;;;;10.30;50.94;102041.75;3562375;40;20040;-43
2021/04/13 09:44:40;;;;;;;3.40;2.22;;;;;;;9.88;52.34;102043.03;3559668;40;20054;-44
2021/04/13 09:47:26;;;;;;;6.43;2.15;;;;;;;9.58;52.25;102042.38;3557860;40;20456;-44
2021/04/13 09:50:31;;;;;;;7.65;2.53;;;;;;;10.37;51.44;102045.50;3562279;40;20049;-46
2021/04/13 09:53:40;;;;;;;5.45;2.03;;;;;;;10.04;52.02;102037.91;3543209;40;20101;-46
2021/04/13 09:56:44;;;;;;;2.38;1.48;;;;;;;10.07;51.39;102045.72;3558396;40;20049;-46
2021/04/13 09:59:41;;;;;;;6.88;2.00;;;;;;;10.54;49.18;102049.75;3562571;40;20494;-47
2021/04/13 10:02:39;;;;;;;3.35;1.63;;;;;;;13.14;42.38;102039.38;3559732;40;20116;-42
2021/04/13 10:05:31;;;;;;;2.17;1.50;;;;;;;15.56;36.28;102047.16;3562658;40;20042;-42
2021/04/13 10:08:21;;;;;;;3.03;1.40;;;;;;;13.47;37.69;102037.16;3562499;40;20502;-45
2021/04/13 10:11:10;;;;;;;3.92;1.50;;;;;;;12.95;40.77;102043.81;3562505;40;20061;-46
2021/04/13 10:14:04;;;;;;;4.22;1.35;;;;;;;12.73;41.70;102041.25;3562831;40;20089;-48
2021/04/13 10:17:00;;;;;;;2.83;1.63;;;;;;;14.87;39.30;102045.19;3564497;40;20064;-45
2021/04/13 10:20:01;;;;;;;4.97;2.13;;;;;;;17.47;34.12;102044.75;3562300;40;20061;-46
2021/04/13 10:22:43;;;;;;;5.43;1.60;;;;;;;15.51;34.91;102052.19;3545440;40;20045;-44
2021/04/13 10:25:53;;;;;;;4.68;1.80;;;;;;;17.92;33.52;102050.75;3558666;40;20143;-44
2021/04/13 10:28:35;;;;;;;2.10;1.27;;;;;;;17.20;31.00;102046.81;3558113;40;20123;-43
2021/04/13 10:31:29;;;;;;;3.30;1.38;;;;;;;15.59;33.21;102049.81;3562028;40;20067;-43
2021/04/13 10:34:11;;;;;;;3.63;1.48;;;;;;;18.86;30.24;102050.50;3562269;40;20093;-47
2021/04/13 10:36:46;;;;;;;5.45;2.13;;;;;;;19.06;29.40;102049.91;3562038;40;20340;-45
2021/04/13 10:39:37;;;;;;;3.28;1.80;;;;;;;19.90;27.91;102049.09;3558935;40;20050;-45
2021/04/13 10:42:37;;;;;;;3.45;1.80;;;;;;;19.23;29.00;102044.94;3562062;40;20042;-45
2021/04/13 10:45:10;;;;;;;4.63;1.88;;;;;;;19.55;26.93;102036.59;3562161;40;20077;-45
2021/04/13 10:48:16;;;;;;;3.17;1.52;;;;;;;16.44;29.85;102033.91;3561110;40;20089;-45
2021/04/13 10:51:14;;;;;;;4.07;2.22;;;;;;;15.66;32.37;102028.50;3560601;40;20097;-45
2021/04/13 10:54:38;;;;;;;3.72;1.75;;;;;;;14.93;33.85;102033.38;3562159;40;20061;-46
2021/04/13 10:57:29;;;;;;;3.70;1.88;;;;;;;15.24;34.23;102032.50;3562039;40;20086;-45
2021/04/13 11:00:10;;;;;;;2.42;1.73;;;;;;;16.40;32.06;102028.63;3563784;40;20064;-43
2021/04/13 11:03:01;;;;;;;4.97;2.00;;;;;;;14.69;33.87;102024.88;3562053;40;20360;-44
2021/04/13 11:05:57;;;;;;;5.95;2.10;;;;;;;13.61;36.70;102014.47;3563787;40;20064;-45
2021/04/13 11:08:51;;;;;;;4.15;2.03;;;;;;;12.77;38.39;102014.84;3563422;40;20041;-49
2021/04/13 11:11:42;;;;;;;3.80;1.70;;;;;;;11.68;42.78;102014.69;3563550;40;20061;-46
2021/04/13 11:14:43;;;;;;;3.90;1.80;;;;;;;11.76;41.34;102004.75;3563197;40;20045;-43
2021/04/13 11:17:35;;;;;;;4.80;2.15;;;;;;;12.37;39.65;102007.28;3563095;40;20100;-46
2021/04/13 11:20:24;;;;;;;6.43;2.78;;;;;;;10.91;42.96;102000.22;3563336;40;20050;-43
2021/04/13 11:23:30;;;;;;;8.75;2.42;;;;;;;10.71;44.28;102004.41;3564049;40;20344;-42
2021/04/13 11:26:35;;;;;;;6.50;2.38;;;;;;;10.92;44.15;102005.41;3563462;40;20061;-43
2021/04/13 11:29:36;;;;;;;4.93;2.72;;;;;;;10.51;46.34;102011.19;3563293;40;20367;-42
2021/04/13 11:32:19;;;;;;;6.45;2.28;;;;;;;10.52;46.88;102012.94;3547422;40;20041;-46
2021/04/13 11:35:20;;;;;;;6.28;2.33;;;;;;;13.69;39.58;102013.06;3563418;40;20057;-47
2021/04/13 11:38:10;;;;;;;5.82;3.00;;;;;;;17.25;34.45;102022.75;3562977;40;20155;-45
2021/04/13 11:41:12;;;;;;;4.25;2.13;;;;;;;18.90;29.67;102026.31;3563276;40;20049;-46
2021/04/13 11:43:56;;;;;;;3.42;2.40;;;;;;;17.48;30.86;102018.00;3562888;40;20061;-45
2021/04/13 11:47:07;;;;;;;2.90;1.60;;;;;;;16.17;32.41;102020.31;3564599;40;20057;-42
2021/04/13 11:49:55;;;;;;;5.03;1.67;;;;;;;13.81;36.41;101994.56;3566444;40;20065;-45
2021/04/13 11:52:42;;;;;;;4.53;1.55;;;;;;;13.82;37.36;101999.78;3558593;40;20081;-43
2021/04/13 11:55:36;;;;;;;5.22;1.73;;;;;;;13.94;37.14;102005.31;3565237;40;20516;-43
2021/04/13 11:58:16;;;;;;;2.72;1.42;;;;;;;12.96;37.36;102006.13;3563715;40;20158;-43
2021/04/13 12:00:48;;;;;;;4.55;1.88;;;;;;;12.93;38.14;102000.84;3560543;40;20040;-44
2021/04/13 12:03:20;;;;;;;6.72;1.85;;;;;;;12.14;39.40;102004.66;3562952;40;20097;-43
2021/04/13 12:05:55;;;;;;;4.45;1.67;;;;;;;11.84;41.00;102004.31;3563295;40;20402;-45
2021/04/13 12:08:46;;;;;;;5.90;2.20;;;;;;;11.61;42.61;102000.75;3562942;40;20093;-43
2021/04/13 12:11:37;;;;;;;4.60;1.50;;;;;;;12.09;41.23;102003.59;3562887;40;20112;-43
2021/04/13 12:14:26;;;;;;;4.53;1.95;;;;;;;13.89;38.23;102008.56;3562996;40;20057;-46
2021/04/13 12:16:52;;;;;;;5.85;1.40;;;;;;;12.78;39.96;102006.31;3563433;40;20085;-43
2021/04/13 12:19:19;;;;;;;5.28;2.17;;;;;;;12.09;40.89;102005.31;3563303;40;20162;-44
2021/04/13 12:21:49;;;;;;;5.22;1.50;;;;;;;11.71;41.64;101994.31;3560879;40;20064;-44
2021/04/13 12:24:34;;;;;;;7.22;1.60;;;;;;;12.85;38.80;101995.47;3562859;40;20049;-46
2021/04/13 12:27:25;;;;;;;5.57;1.65;;;;;;;13.47;38.19;101991.72;3562898;40;20061;-48
2021/04/13 12:30:23;;;;;;;4.93;1.70;;;;;;;15.54;34.10;102001.50;3563129;40;20238;-44